Zim Mumbai — P3BA7 — position and weather

sailwx.info

Track history (hours):
 
Tides and Currents Weather Stations Pressure Air Temp Water Temp Dewpoint Dewpoint Depression Visibility Wind Speed Wind Dir Waves Ship Positions

Zim Mumbai

Last reported at 2016-Aug-25 13:33 UTC. Time now 2016-Aug-29 23:33 UTC.
Position S 33°51' E 018°21'.

Length 195.7 m; beam 32.3 m; draft 11.5 m.

Type: Ship (hazmat cat B). MMSI: 212160000.

Date/timePositionNaut miles runAvg speedWind from/ knotsBaromVisibWave heightAir tempDewpointWater temp
2016-Aug-25 13:33S 33°51' E 018°21'5 4.9
2016-Aug-25 12:31S 33°55' E 018°26'0 0.0
2016-Aug-25 11:31S 33°55' E 018°26'0 0.0
2016-Aug-25 10:32S 33°55' E 018°26'0 0.0
2016-Aug-25 09:33S 33°55' E 018°26'0 0.0
2016-Aug-25 08:32S 33°55' E 018°26'0 0.0
2016-Aug-25 07:32S 33°55' E 018°26'0 0.0
2016-Aug-25 06:33S 33°55' E 018°26'0 0.0
2016-Aug-25 04:33S 33°55' E 018°26'0 0.0
2016-Aug-25 03:31S 33°55' E 018°26'0 0.0
2016-Aug-25 02:33S 33°55' E 018°26'0 0.0
2016-Aug-25 01:29S 33°55' E 018°26'0 0.0
2016-Aug-25 00:26S 33°55' E 018°26'0 0.0
2016-Aug-24 23:30S 33°55' E 018°26'0 0.0
2016-Aug-24 22:31S 33°55' E 018°26'0 0.0
2016-Aug-24 21:33S 33°55' E 018°26'0 0.0
2016-Aug-24 20:33S 33°55' E 018°26'0 0.0
2016-Aug-24 19:31S 33°55' E 018°26'0 0.0
2016-Aug-24 18:33S 33°55' E 018°26'0 0.0
2016-Aug-24 17:31S 33°55' E 018°26'0 0.0
2016-Aug-24 16:27S 33°55' E 018°26'0 0.0
2016-Aug-24 15:33S 33°55' E 018°26'0 0.0
2016-Aug-24 14:33S 33°55' E 018°26'0 0.0
2016-Aug-24 13:29S 33°55' E 018°26'0 0.0
2016-Aug-24 12:28S 33°55' E 018°26'0 0.0
2016-Aug-24 11:33S 33°55' E 018°26'0 0.0
2016-Aug-24 10:33S 33°55' E 018°26'0 0.0
2016-Aug-24 09:32S 33°55' E 018°26'0 0.0
2016-Aug-24 08:32S 33°55' E 018°26'0 0.0
2016-Aug-24 07:32S 33°55' E 018°26'0 0.0
2016-Aug-24 06:32S 33°55' E 018°26'0 0.0
2016-Aug-24 04:33S 33°55' E 018°26'0 0.0
2016-Aug-24 03:33S 33°55' E 018°26'0 0.0
2016-Aug-24 02:33S 33°55' E 018°26'3 3.2
2016-Aug-24 01:33S 33°52' E 018°23'8 8.0
2016-Aug-24 00:33S 33°58' E 018°16'67913.1
2016-Aug-21 20:33S 30°19' E 030°55'1717.0
2016-Aug-21 19:33S 30°05' E 031°06'1414.5
2016-Aug-21 18:34S 29°51' E 031°07'6 5.4
2016-Aug-21 17:31S 29°53' E 031°01'0 0.0
2016-Aug-21 16:32S 29°53' E 031°01'0 0.0
2016-Aug-21 15:33S 29°53' E 031°01'0 0.0
2016-Aug-21 14:31S 29°53' E 031°01'0 0.1
2016-Aug-21 13:33S 29°53' E 031°01'0 0.0
2016-Aug-21 12:33S 29°53' E 031°01'0 0.1
2016-Aug-21 11:33S 29°53' E 031°01'0 0.1
2016-Aug-21 10:30S 29°53' E 031°01'0 0.1
2016-Aug-21 09:29S 29°53' E 031°01'0 0.0
2016-Aug-21 08:28S 29°53' E 031°01'0 0.0
2016-Aug-21 07:33S 29°53' E 031°01'0 0.0
2016-Aug-21 06:32S 29°53' E 031°01'0 0.0
2016-Aug-21 05:33S 29°53' E 031°01'0 0.0
2016-Aug-21 04:32S 29°53' E 031°01'0 0.0
2016-Aug-21 03:30S 29°53' E 031°01'0 0.1
2016-Aug-21 02:32S 29°53' E 031°01'0 0.1
2016-Aug-21 01:25S 29°53' E 031°01'0 0.1
2016-Aug-21 00:29S 29°53' E 031°01'0 0.0
2016-Aug-20 23:33S 29°53' E 031°01'0 0.0
2016-Aug-20 22:31S 29°53' E 031°01'0 0.0
2016-Aug-20 21:33S 29°53' E 031°01'0 0.0
2016-Aug-20 20:33S 29°53' E 031°01'0 0.0
2016-Aug-20 19:33S 29°53' E 031°01'0 0.0
2016-Aug-20 18:30S 29°53' E 031°01'0 0.0
2016-Aug-20 17:33S 29°53' E 031°01'0 0.0
2016-Aug-20 16:32S 29°53' E 031°01'0 0.0
2016-Aug-20 15:33S 29°53' E 031°01'0 0.0
2016-Aug-20 14:31S 29°53' E 031°01'0 0.1
2016-Aug-20 13:31S 29°53' E 031°01'0 0.1
2016-Aug-20 12:32S 29°53' E 031°01'0 0.0
2016-Aug-20 11:31S 29°53' E 031°01'0 0.0
2016-Aug-20 10:33S 29°53' E 031°01'0 0.0
2016-Aug-20 09:31S 29°53' E 031°01'0 0.0
2016-Aug-20 08:31S 29°53' E 031°01'0 0.0
2016-Aug-20 07:32S 29°53' E 031°01'0 0.0
2016-Aug-20 06:32S 29°53' E 031°01'0 0.0
2016-Aug-20 05:32S 29°53' E 031°01'0 0.0
2016-Aug-20 04:32S 29°53' E 031°01'0 0.0
2016-Aug-20 03:31S 29°53' E 031°01'0 0.0
2016-Aug-20 02:29S 29°53' E 031°01'0 0.0
2016-Aug-20 01:32S 29°53' E 031°01'0 0.0
2016-Aug-20 00:31S 29°53' E 031°01'0 0.0
2016-Aug-19 23:33S 29°53' E 031°01'0 0.1
2016-Aug-19 22:32S 29°53' E 031°01'0 0.1
2016-Aug-19 21:32S 29°53' E 031°01'0 0.0
2016-Aug-19 20:33S 29°53' E 031°01'0 0.0
2016-Aug-19 19:31S 29°53' E 031°01'0 0.0
2016-Aug-19 18:33S 29°53' E 031°01'0 0.0
2016-Aug-19 17:32S 29°53' E 031°01'0 0.0
2016-Aug-19 16:32S 29°53' E 031°01'0 0.0
2016-Aug-19 15:33S 29°53' E 031°01'0 0.0
2016-Aug-19 14:33S 29°53' E 031°01'0 0.0
2016-Aug-19 13:32S 29°53' E 031°01'0 0.0
2016-Aug-19 12:33S 29°53' E 031°01'0 0.0
2016-Aug-19 11:32S 29°53' E 031°01'0 0.0
2016-Aug-19 10:31S 29°53' E 031°01'0 0.0
2016-Aug-19 09:33S 29°53' E 031°01'3 3.5
2016-Aug-19 08:33S 29°51' E 031°05'6 6.4
2016-Aug-19 07:33S 29°46' E 031°10'2 2.4
2016-Aug-19 06:31S 29°44' E 031°11'0 0.0
2016-Aug-19 05:30S 29°44' E 031°11'0 0.0
2016-Aug-18 20:27S 29°44' E 031°11'0 0.1
2016-Aug-18 19:32S 29°44' E 031°11'0 0.0
2016-Aug-18 18:28S 29°44' E 031°11'0 0.0
2016-Aug-18 17:25S 29°44' E 031°11'0 0.1
2016-Aug-18 16:29S 29°44' E 031°11'0 0.1
2016-Aug-18 15:33S 29°44' E 031°11'0 0.1
2016-Aug-18 14:32S 29°44' E 031°11'0 0.0
2016-Aug-18 13:33S 29°44' E 031°11'0 0.0
2016-Aug-18 12:31S 29°44' E 031°11'0 0.0
2016-Aug-18 11:31S 29°44' E 031°11'0 0.1
2016-Aug-18 10:32S 29°44' E 031°11'0 0.0
2016-Aug-18 09:32S 29°44' E 031°11'0 0.0
2016-Aug-18 08:28S 29°44' E 031°11'0 0.0
2016-Aug-18 07:33S 29°44' E 031°11'0 0.0
2016-Aug-18 06:31S 29°44' E 031°11'0 0.0
2016-Aug-18 05:31S 29°44' E 031°11'0 0.0
2016-Aug-18 04:33S 29°44' E 031°11'0 0.0
2016-Aug-18 03:32S 29°44' E 031°11'0 0.0
2016-Aug-18 02:32S 29°44' E 031°11'0 0.0
2016-Aug-18 01:32S 29°44' E 031°11'0 0.0
2016-Aug-18 00:30S 29°44' E 031°11'0 0.0
2016-Aug-17 23:32S 29°44' E 031°11'0 0.0
2016-Aug-17 22:33S 29°44' E 031°11'0 0.0
2016-Aug-17 21:33S 29°44' E 031°11'0 0.1
2016-Aug-17 20:32S 29°44' E 031°11'0 0.0
2016-Aug-17 19:33S 29°44' E 031°11'0 0.1
2016-Aug-17 18:32S 29°44' E 031°11'0 0.0
2016-Aug-17 17:32S 29°44' E 031°11'0 0.1
2016-Aug-17 16:33S 29°44' E 031°11'0 0.0
2016-Aug-17 15:33S 29°44' E 031°11'0 0.0
2016-Aug-17 14:31S 29°44' E 031°11'0 0.0
2016-Aug-17 13:31S 29°44' E 031°11'0 0.0
2016-Aug-17 12:31S 29°44' E 031°11'0 0.0
2016-Aug-17 11:33S 29°44' E 031°11'0 0.0
2016-Aug-17 10:33S 29°44' E 031°11'0 0.0
2016-Aug-17 09:33S 29°44' E 031°11'0 0.0
2016-Aug-17 08:32S 29°44' E 031°11'0 0.0
2016-Aug-17 07:31S 29°44' E 031°11'0 0.0
2016-Aug-17 06:31S 29°44' E 031°11'0 0.1
2016-Aug-17 05:33S 29°44' E 031°11'0 0.0
2016-Aug-17 04:30S 29°44' E 031°11'0 0.1
2016-Aug-17 03:31S 29°44' E 031°11'0 0.0
2016-Aug-17 02:30S 29°44' E 031°11'0 0.0
2016-Aug-17 01:33S 29°44' E 031°11'0 0.0
2016-Aug-17 00:31S 29°44' E 031°11'0 0.0
2016-Aug-16 23:31S 29°44' E 031°11'0 0.0
2016-Aug-16 22:31S 29°44' E 031°11'0 0.0
2016-Aug-16 21:33S 29°44' E 031°11'0 0.0
2016-Aug-16 20:33S 29°44' E 031°11'0 0.0
2016-Aug-16 19:33S 29°44' E 031°11'0 0.0
2016-Aug-16 18:28S 29°44' E 031°11'0 0.0
2016-Aug-16 17:30S 29°44' E 031°11'0 0.0
2016-Aug-16 16:32S 29°44' E 031°11'0 0.0
2016-Aug-16 15:30S 29°44' E 031°11'0 0.0
2016-Aug-16 14:31S 29°44' E 031°11'0 0.1
2016-Aug-16 13:32S 29°44' E 031°11'0 0.0
2016-Aug-16 12:31S 29°44' E 031°11'0 0.0
2016-Aug-16 11:31S 29°44' E 031°11'0 0.0
2016-Aug-16 10:31S 29°44' E 031°11'0 0.0
2016-Aug-16 09:32S 29°44' E 031°11'0 0.0
2016-Aug-16 08:32S 29°44' E 031°11'0 0.0
2016-Aug-16 07:33S 29°44' E 031°11'0 0.0
2016-Aug-16 06:33S 29°44' E 031°11'0 0.0
2016-Aug-16 04:32S 29°44' E 031°11'0 0.0
2016-Aug-16 03:32S 29°44' E 031°11'0 0.0
2016-Aug-16 02:27S 29°44' E 031°11'0 0.0
2016-Aug-16 01:30S 29°44' E 031°11'0 0.0
2016-Aug-16 00:31S 29°44' E 031°11'0 0.0
2016-Aug-15 23:33S 29°44' E 031°11'0 0.1
2016-Aug-15 22:33S 29°44' E 031°11'0 0.0
2016-Aug-15 21:32S 29°44' E 031°11'0 0.0
2016-Aug-15 20:26S 29°44' E 031°11'0 0.0
2016-Aug-15 19:31S 29°44' E 031°11'0 0.0
2016-Aug-15 18:26S 29°44' E 031°11'0 0.0
2016-Aug-15 17:32S 29°44' E 031°11'0 0.0
2016-Aug-15 16:32S 29°44' E 031°11'0 0.0
2016-Aug-15 15:32S 29°44' E 031°11'0 0.0
2016-Aug-15 14:33S 29°44' E 031°11'  
Track history (hours):
 
Tides and Currents Weather Stations Pressure Air Temp Water Temp Dewpoint Dewpoint Depression Visibility Wind Speed Wind Dir Waves Ship Positions

Zim Mumbai

Last reported at 2016-Aug-25 13:33 UTC. Time now 2016-Aug-29 23:33 UTC.
Position S 33°51' E 018°21'.

Length 195.7 m; beam 32.3 m; draft 11.5 m.

Type: Ship (hazmat cat B). MMSI: 212160000.

Date/timePositionNaut miles runAvg speedWind from/ knotsBaromVisibWave heightAir tempDewpointWater temp
2016-Aug-25 13:33S 33°51' E 018°21'5 4.9
2016-Aug-25 12:31S 33°55' E 018°26'0 0.0
2016-Aug-25 11:31S 33°55' E 018°26'0 0.0
2016-Aug-25 10:32S 33°55' E 018°26'0 0.0
2016-Aug-25 09:33S 33°55' E 018°26'0 0.0
2016-Aug-25 08:32S 33°55' E 018°26'0 0.0
2016-Aug-25 07:32S 33°55' E 018°26'0 0.0
2016-Aug-25 06:33S 33°55' E 018°26'0 0.0
2016-Aug-25 04:33S 33°55' E 018°26'0 0.0
2016-Aug-25 03:31S 33°55' E 018°26'0 0.0
2016-Aug-25 02:33S 33°55' E 018°26'0 0.0
2016-Aug-25 01:29S 33°55' E 018°26'0 0.0
2016-Aug-25 00:26S 33°55' E 018°26'0 0.0
2016-Aug-24 23:30S 33°55' E 018°26'0 0.0
2016-Aug-24 22:31S 33°55' E 018°26'0 0.0
2016-Aug-24 21:33S 33°55' E 018°26'0 0.0
2016-Aug-24 20:33S 33°55' E 018°26'0 0.0
2016-Aug-24 19:31S 33°55' E 018°26'0 0.0
2016-Aug-24 18:33S 33°55' E 018°26'0 0.0
2016-Aug-24 17:31S 33°55' E 018°26'0 0.0
2016-Aug-24 16:27S 33°55' E 018°26'0 0.0
2016-Aug-24 15:33S 33°55' E 018°26'0 0.0
2016-Aug-24 14:33S 33°55' E 018°26'0 0.0
2016-Aug-24 13:29S 33°55' E 018°26'0 0.0
2016-Aug-24 12:28S 33°55' E 018°26'0 0.0
2016-Aug-24 11:33S 33°55' E 018°26'0 0.0
2016-Aug-24 10:33S 33°55' E 018°26'0 0.0
2016-Aug-24 09:32S 33°55' E 018°26'0 0.0
2016-Aug-24 08:32S 33°55' E 018°26'0 0.0
2016-Aug-24 07:32S 33°55' E 018°26'0 0.0
2016-Aug-24 06:32S 33°55' E 018°26'0 0.0
2016-Aug-24 04:33S 33°55' E 018°26'0 0.0
2016-Aug-24 03:33S 33°55' E 018°26'0 0.0
2016-Aug-24 02:33S 33°55' E 018°26'3 3.2
2016-Aug-24 01:33S 33°52' E 018°23'8 8.0
2016-Aug-24 00:33S 33°58' E 018°16'67913.1
2016-Aug-21 20:33S 30°19' E 030°55'1717.0
2016-Aug-21 19:33S 30°05' E 031°06'1414.5
2016-Aug-21 18:34S 29°51' E 031°07'6 5.4
2016-Aug-21 17:31S 29°53' E 031°01'0 0.0
2016-Aug-21 16:32S 29°53' E 031°01'0 0.0
2016-Aug-21 15:33S 29°53' E 031°01'0 0.0
2016-Aug-21 14:31S 29°53' E 031°01'0 0.1
2016-Aug-21 13:33S 29°53' E 031°01'0 0.0
2016-Aug-21 12:33S 29°53' E 031°01'0 0.1
2016-Aug-21 11:33S 29°53' E 031°01'0 0.1
2016-Aug-21 10:30S 29°53' E 031°01'0 0.1
2016-Aug-21 09:29S 29°53' E 031°01'0 0.0
2016-Aug-21 08:28S 29°53' E 031°01'0 0.0
2016-Aug-21 07:33S 29°53' E 031°01'0 0.0
2016-Aug-21 06:32S 29°53' E 031°01'0 0.0
2016-Aug-21 05:33S 29°53' E 031°01'0 0.0
2016-Aug-21 04:32S 29°53' E 031°01'0 0.0
2016-Aug-21 03:30S 29°53' E 031°01'0 0.1
2016-Aug-21 02:32S 29°53' E 031°01'0 0.1
2016-Aug-21 01:25S 29°53' E 031°01'0 0.1
2016-Aug-21 00:29S 29°53' E 031°01'0 0.0
2016-Aug-20 23:33S 29°53' E 031°01'0 0.0
2016-Aug-20 22:31S 29°53' E 031°01'0 0.0
2016-Aug-20 21:33S 29°53' E 031°01'0 0.0
2016-Aug-20 20:33S 29°53' E 031°01'0 0.0
2016-Aug-20 19:33S 29°53' E 031°01'0 0.0
2016-Aug-20 18:30S 29°53' E 031°01'0 0.0
2016-Aug-20 17:33S 29°53' E 031°01'0 0.0
2016-Aug-20 16:32S 29°53' E 031°01'0 0.0
2016-Aug-20 15:33S 29°53' E 031°01'0 0.0
2016-Aug-20 14:31S 29°53' E 031°01'0 0.1
2016-Aug-20 13:31S 29°53' E 031°01'0 0.1
2016-Aug-20 12:32S 29°53' E 031°01'0 0.0
2016-Aug-20 11:31S 29°53' E 031°01'0 0.0
2016-Aug-20 10:33S 29°53' E 031°01'0 0.0
2016-Aug-20 09:31S 29°53' E 031°01'0 0.0
2016-Aug-20 08:31S 29°53' E 031°01'0 0.0
2016-Aug-20 07:32S 29°53' E 031°01'0 0.0
2016-Aug-20 06:32S 29°53' E 031°01'0 0.0
2016-Aug-20 05:32S 29°53' E 031°01'0 0.0
2016-Aug-20 04:32S 29°53' E 031°01'0 0.0
2016-Aug-20 03:31S 29°53' E 031°01'0 0.0
2016-Aug-20 02:29S 29°53' E 031°01'0 0.0
2016-Aug-20 01:32S 29°53' E 031°01'0 0.0
2016-Aug-20 00:31S 29°53' E 031°01'0 0.0
2016-Aug-19 23:33S 29°53' E 031°01'0 0.1
2016-Aug-19 22:32S 29°53' E 031°01'0 0.1
2016-Aug-19 21:32S 29°53' E 031°01'0 0.0
2016-Aug-19 20:33S 29°53' E 031°01'0 0.0
2016-Aug-19 19:31S 29°53' E 031°01'0 0.0
2016-Aug-19 18:33S 29°53' E 031°01'0 0.0
2016-Aug-19 17:32S 29°53' E 031°01'0 0.0
2016-Aug-19 16:32S 29°53' E 031°01'0 0.0
2016-Aug-19 15:33S 29°53' E 031°01'0 0.0
2016-Aug-19 14:33S 29°53' E 031°01'0 0.0
2016-Aug-19 13:32S 29°53' E 031°01'0 0.0
2016-Aug-19 12:33S 29°53' E 031°01'0 0.0
2016-Aug-19 11:32S 29°53' E 031°01'0 0.0
2016-Aug-19 10:31S 29°53' E 031°01'0 0.0
2016-Aug-19 09:33S 29°53' E 031°01'3 3.5
2016-Aug-19 08:33S 29°51' E 031°05'6 6.4
2016-Aug-19 07:33S 29°46' E 031°10'2 2.4
2016-Aug-19 06:31S 29°44' E 031°11'0 0.0
2016-Aug-19 05:30S 29°44' E 031°11'0 0.0
2016-Aug-18 20:27S 29°44' E 031°11'0 0.1
2016-Aug-18 19:32S 29°44' E 031°11'0 0.0
2016-Aug-18 18:28S 29°44' E 031°11'0 0.0
2016-Aug-18 17:25S 29°44' E 031°11'0 0.1
2016-Aug-18 16:29S 29°44' E 031°11'0 0.1
2016-Aug-18 15:33S 29°44' E 031°11'0 0.1
2016-Aug-18 14:32S 29°44' E 031°11'0 0.0
2016-Aug-18 13:33S 29°44' E 031°11'0 0.0
2016-Aug-18 12:31S 29°44' E 031°11'0 0.0
2016-Aug-18 11:31S 29°44' E 031°11'0 0.1
2016-Aug-18 10:32S 29°44' E 031°11'0 0.0
2016-Aug-18 09:32S 29°44' E 031°11'0 0.0
2016-Aug-18 08:28S 29°44' E 031°11'0 0.0
2016-Aug-18 07:33S 29°44' E 031°11'0 0.0
2016-Aug-18 06:31S 29°44' E 031°11'0 0.0
2016-Aug-18 05:31S 29°44' E 031°11'0 0.0
2016-Aug-18 04:33S 29°44' E 031°11'0 0.0
2016-Aug-18 03:32S 29°44' E 031°11'0 0.0
2016-Aug-18 02:32S 29°44' E 031°11'0 0.0
2016-Aug-18 01:32S 29°44' E 031°11'0 0.0
2016-Aug-18 00:30S 29°44' E 031°11'0 0.0
2016-Aug-17 23:32S 29°44' E 031°11'0 0.0
2016-Aug-17 22:33S 29°44' E 031°11'0 0.0
2016-Aug-17 21:33S 29°44' E 031°11'0 0.1
2016-Aug-17 20:32S 29°44' E 031°11'0 0.0
2016-Aug-17 19:33S 29°44' E 031°11'0 0.1
2016-Aug-17 18:32S 29°44' E 031°11'0 0.0
2016-Aug-17 17:32S 29°44' E 031°11'0 0.1
2016-Aug-17 16:33S 29°44' E 031°11'0 0.0
2016-Aug-17 15:33S 29°44' E 031°11'0 0.0
2016-Aug-17 14:31S 29°44' E 031°11'0 0.0
2016-Aug-17 13:31S 29°44' E 031°11'0 0.0
2016-Aug-17 12:31S 29°44' E 031°11'0 0.0
2016-Aug-17 11:33S 29°44' E 031°11'0 0.0
2016-Aug-17 10:33S 29°44' E 031°11'0 0.0
2016-Aug-17 09:33S 29°44' E 031°11'0 0.0
2016-Aug-17 08:32S 29°44' E 031°11'0 0.0
2016-Aug-17 07:31S 29°44' E 031°11'0 0.0
2016-Aug-17 06:31S 29°44' E 031°11'0 0.1
2016-Aug-17 05:33S 29°44' E 031°11'0 0.0
2016-Aug-17 04:30S 29°44' E 031°11'0 0.1
2016-Aug-17 03:31S 29°44' E 031°11'0 0.0
2016-Aug-17 02:30S 29°44' E 031°11'0 0.0
2016-Aug-17 01:33S 29°44' E 031°11'0 0.0
2016-Aug-17 00:31S 29°44' E 031°11'0 0.0
2016-Aug-16 23:31S 29°44' E 031°11'0 0.0
2016-Aug-16 22:31S 29°44' E 031°11'0 0.0
2016-Aug-16 21:33S 29°44' E 031°11'0 0.0
2016-Aug-16 20:33S 29°44' E 031°11'0 0.0
2016-Aug-16 19:33S 29°44' E 031°11'0 0.0
2016-Aug-16 18:28S 29°44' E 031°11'0 0.0
2016-Aug-16 17:30S 29°44' E 031°11'0 0.0
2016-Aug-16 16:32S 29°44' E 031°11'0 0.0
2016-Aug-16 15:30S 29°44' E 031°11'0 0.0
2016-Aug-16 14:31S 29°44' E 031°11'0 0.1
2016-Aug-16 13:32S 29°44' E 031°11'0 0.0
2016-Aug-16 12:31S 29°44' E 031°11'0 0.0
2016-Aug-16 11:31S 29°44' E 031°11'0 0.0
2016-Aug-16 10:31S 29°44' E 031°11'0 0.0
2016-Aug-16 09:32S 29°44' E 031°11'0 0.0
2016-Aug-16 08:32S 29°44' E 031°11'0 0.0
2016-Aug-16 07:33S 29°44' E 031°11'0 0.0
2016-Aug-16 06:33S 29°44' E 031°11'0 0.0
2016-Aug-16 04:32S 29°44' E 031°11'0 0.0
2016-Aug-16 03:32S 29°44' E 031°11'0 0.0
2016-Aug-16 02:27S 29°44' E 031°11'0 0.0
2016-Aug-16 01:30S 29°44' E 031°11'0 0.0
2016-Aug-16 00:31S 29°44' E 031°11'0 0.0
2016-Aug-15 23:33S 29°44' E 031°11'0 0.1
2016-Aug-15 22:33S 29°44' E 031°11'0 0.0
2016-Aug-15 21:32S 29°44' E 031°11'0 0.0
2016-Aug-15 20:26S 29°44' E 031°11'0 0.0
2016-Aug-15 19:31S 29°44' E 031°11'0 0.0
2016-Aug-15 18:26S 29°44' E 031°11'0 0.0
2016-Aug-15 17:32S 29°44' E 031°11'0 0.0
2016-Aug-15 16:32S 29°44' E 031°11'0 0.0
2016-Aug-15 15:32S 29°44' E 031°11'0 0.0
2016-Aug-15 14:33S 29°44' E 031°11'  

Dump ship's entire track history